Loiza, Puerto Rico
Current Conditions -  °F | °C
As of 5:53 AM on Wednesday 26 Nov 2014 (Local Time) from TJNR Reporting Station
Overcast Overcast  
Wind Chill: 78°   Ceiling: 5500
Heat Index: 80°   Visibility: 10mi
Dew Point: 72°   Wind: 12mph
Humidity: 81%   Direction: 100°E
Pressure: 30.01"   Gusts: NA
Location:  18.2°N, 65.86°W
Report Text: TJNR 260953Z AUTO 10010KT 10SM FEW026 BKN055 OVC065 26/22 A3001 RMK AO2 SLP161 T02560222 $
Loading
Personal Weather Stations






























Interactive Weather Map New forecast layout! Learn more

10-Day Weather Forecast

Advertisements
Track Severe Weather on mobile